Time;durP1;ratioP1;P1;durP2;ratioP2;P2;SDS_P1;SDS_P2;PMS_P1;PMS_P2;Temp;Humidity;BMP_temperature;BMP_pressure;BME280_temperature;BME280_humidity;BME280_pressure;Samples;Min_cycle;Max_cycle;Signal;HPM_P1;HPM_P2
2022/07/08 00:01:03;;;;;;;5.15;3.55;;;;;;;17.40;64.36;100604.34;2072485;85;29255;-72
2022/07/08 00:04:04;;;;;;;7.12;4.28;;;;;;;17.37;64.33;100606.79;2072131;85;27679;-73
2022/07/08 00:07:05;;;;;;;7.47;4.47;;;;;;;17.35;64.47;100609.22;2071517;85;30007;-73
2022/07/08 00:10:08;;;;;;;7.60;4.70;;;;;;;17.33;64.58;100605.28;2071705;85;32400;-72
2022/07/08 00:13:09;;;;;;;9.58;4.78;;;;;;;17.31;64.68;100609.94;2071990;85;33314;-72
2022/07/08 00:16:11;;;;;;;5.78;4.28;;;;;;;17.28;64.78;100606.09;2071896;85;29678;-74
2022/07/08 00:19:14;;;;;;;7.20;4.75;;;;;;;17.25;64.90;100598.19;2071684;85;27754;-73
2022/07/08 00:22:16;;;;;;;5.22;4.45;;;;;;;17.23;65.02;100606.91;2071452;84;28732;-73
2022/07/08 00:25:18;;;;;;;8.63;4.75;;;;;;;17.22;65.15;100609.23;2071478;85;32282;-74
2022/07/08 00:28:19;;;;;;;6.05;5.08;;;;;;;17.21;65.35;100607.03;2071547;85;33018;-73
2022/07/08 00:31:21;;;;;;;5.70;5.00;;;;;;;17.18;65.58;100609.95;2071895;85;29729;-73
2022/07/08 00:34:22;;;;;;;5.55;4.80;;;;;;;17.16;65.70;100610.55;2072087;85;27664;-72
2022/07/08 00:37:24;;;;;;;6.45;5.78;;;;;;;17.16;65.70;100610.55;2071692;85;29696;-72
2022/07/08 00:40:25;;;;;;;6.22;5.12;;;;;;;17.16;65.94;100611.44;2072042;85;31391;-72
2022/07/08 00:43:36;;;;;;;6.42;4.95;;;;;;;17.15;66.07;100607.47;2071128;85;34201;-72
2022/07/08 00:46:38;;;;;;;5.45;4.95;;;;;;;17.16;66.32;100617.32;2068784;86;29777;-73
2022/07/08 00:49:40;;;;;;;6.42;5.90;;;;;;;17.16;66.36;100610.55;2068975;86;27679;-73
2022/07/08 00:52:42;;;;;;;6.78;6.17;;;;;;;17.16;66.46;100611.44;2069001;86;28672;-72
2022/07/08 00:55:44;;;;;;;7.15;6.50;;;;;;;17.18;66.59;100613.17;2068669;86;31443;-73
2022/07/08 00:58:47;;;;;;;7.17;6.53;;;;;;;17.18;66.75;100618.08;2068502;86;32950;-73
2022/07/08 01:01:49;;;;;;;7.15;6.45;;;;;;;17.18;66.78;100619.94;2068867;86;29952;-72
2022/07/08 01:04:51;;;;;;;10.53;6.67;;;;;;;17.17;66.92;100623.11;2069208;86;27597;-72
2022/07/08 01:07:52;;;;;;;7.87;7.10;;;;;;;17.18;67.09;100619.44;2068746;86;28663;-72
2022/07/08 01:10:54;;;;;;;9.13;6.95;;;;;;;17.18;67.28;100620.78;2068833;86;31032;-73
2022/07/08 01:13:56;;;;;;;11.12;6.70;;;;;;;17.18;67.32;100619.94;2029199;87;32959;-72
2022/07/08 01:16:57;;;;;;;7.45;6.65;;;;;;;17.18;67.46;100618.58;2068906;86;29682;-72
2022/07/08 01:19:58;;;;;;;8.05;7.10;;;;;;;17.16;67.52;100622.27;2068874;86;27617;-72
2022/07/08 01:23:00;;;;;;;8.73;7.58;;;;;;;17.15;67.49;100626.42;2068939;86;29890;-72
2022/07/08 01:26:11;;;;;;;11.00;7.20;;;;;;;17.14;67.68;100632.34;2068353;86;32290;-72
2022/07/08 01:29:16;;;;;;;8.65;7.50;;;;;;;17.13;67.73;100634.66;2068737;86;34254;-73
2022/07/08 01:32:18;;;;;;;8.38;7.42;;;;;;;17.13;67.91;100641.91;2068921;85;30031;-72
2022/07/08 01:35:22;;;;;;;8.35;7.53;;;;;;;17.13;68.07;100640.08;2067811;85;27915;-73
2022/07/08 01:38:24;;;;;;;11.05;8.30;;;;;;;17.12;68.12;100636.99;2067304;85;29586;-73
2022/07/08 01:41:26;;;;;;;10.30;7.47;;;;;;;17.12;68.16;100634.78;2066768;85;31559;-74
2022/07/08 01:44:27;;;;;;;8.85;6.97;;;;;;;17.11;68.29;100633.05;2068737;83;33529;-74
2022/07/08 01:47:29;;;;;;;7.78;7.08;;;;;;;17.10;68.37;100635.38;2072236;84;29367;-74
2022/07/08 01:50:30;;;;;;;8.40;7.58;;;;;;;17.10;68.59;100635.38;2072187;84;27691;-74
2022/07/08 01:53:31;;;;;;;8.33;7.62;;;;;;;17.07;68.62;100637.80;2071795;85;29822;-74
2022/07/08 01:56:32;;;;;;;8.25;7.45;;;;;;;17.06;68.80;100638.77;2070164;84;31818;-74
2022/07/08 01:59:33;;;;;;;8.40;7.53;;;;;;;17.05;68.84;100638.89;2070399;85;33733;-74
2022/07/08 02:02:35;;;;;;;10.78;8.23;;;;;;;17.03;68.90;100639.02;2070758;86;29663;-74
2022/07/08 02:05:37;;;;;;;9.05;7.72;;;;;;;17.01;69.02;100648.58;2072023;84;27703;-71
2022/07/08 02:08:38;;;;;;;9.23;8.13;;;;;;;16.85;68.96;100627.14;2072439;85;29276;-72
2022/07/08 02:15:02;;;;;;;10.23;7.90;;;;;;;16.93;69.36;100655.02;2070829;84;33515;-73
2022/07/08 02:18:03;;;;;;;9.57;8.60;;;;;;;16.91;69.43;100662.38;2071027;86;29461;-74
2022/07/08 02:21:05;;;;;;;9.58;8.68;;;;;;;16.89;69.49;100660.72;2070308;85;27644;-71
2022/07/08 02:24:07;;;;;;;10.78;8.48;;;;;;;16.85;69.72;100667.73;2071733;85;29119;-71
2022/07/08 02:27:09;;;;;;;9.10;8.23;;;;;;;16.83;69.71;100669.67;2071853;84;32281;-71
2022/07/08 02:30:12;;;;;;;9.30;8.40;;;;;;;16.82;69.84;100673.83;2072067;84;33033;-71
2022/07/08 02:33:13;;;;;;;8.90;8.13;;;;;;;16.78;69.89;100674.53;2070794;85;29376;-71
2022/07/08 02:36:14;;;;;;;9.65;8.83;;;;;;;16.76;70.07;100678.33;2070556;85;27798;-72
2022/07/08 02:39:17;;;;;;;10.20;9.23;;;;;;;16.73;70.16;100674.48;2070203;84;29103;-71
2022/07/08 02:42:18;;;;;;;9.60;8.68;;;;;;;16.68;70.33;100672.95;2070439;84;32108;-70
2022/07/08 02:45:20;;;;;;;9.40;8.50;;;;;;;16.67;70.48;100682.04;2071931;83;32965;-71
2022/07/08 02:48:22;;;;;;;12.55;9.40;;;;;;;16.66;70.58;100685.72;2072025;85;29850;-72
2022/07/08 02:51:24;;;;;;;10.13;9.23;;;;;;;16.67;70.69;100686.59;2072327;84;28301;-72
2022/07/08 02:54:26;;;;;;;9.65;8.85;;;;;;;16.67;70.84;100694.72;2070187;84;28687;-73
2022/07/08 02:57:27;;;;;;;11.55;10.53;;;;;;;16.67;71.01;100688.80;2070481;85;32189;-73
2022/07/08 03:00:29;;;;;;;12.73;10.03;;;;;;;16.69;71.12;100699.03;2070137;84;33655;-72
2022/07/08 03:03:31;;;;;;;11.63;10.63;;;;;;;16.70;71.44;100695.86;2071686;84;30081;-73
2022/07/08 03:06:33;;;;;;;10.98;9.88;;;;;;;16.69;71.60;100696.33;2072337;84;27657;-74
2022/07/08 03:09:35;;;;;;;11.88;10.68;;;;;;;16.73;71.92;100697.48;2071807;85;28753;-72
2022/07/08 03:12:36;;;;;;;11.45;10.32;;;;;;;16.71;71.83;100702.50;2071533;85;32025;-73
2022/07/08 03:15:38;;;;;;;11.08;9.98;;;;;;;16.73;72.13;100706.44;2070101;85;34310;-73
2022/07/08 03:18:41;;;;;;;12.00;9.90;;;;;;;16.74;72.30;100705.97;2069998;84;30518;-73
2022/07/08 03:21:42;;;;;;;11.30;10.08;;;;;;;16.75;72.42;100709.06;2070077;85;27664;-73
2022/07/08 03:24:44;;;;;;;10.98;9.98;;;;;;;16.76;72.42;100709.45;2072297;85;28891;-73
2022/07/08 03:27:48;;;;;;;11.28;10.28;;;;;;;16.77;72.58;100714.73;2071821;84;31055;-71
2022/07/08 03:30:49;;;;;;;11.35;10.03;;;;;;;16.79;72.73;100716.00;2072173;85;32968;-71
2022/07/08 03:33:50;;;;;;;12.68;10.65;;;;;;;16.80;72.81;100715.88;2070690;85;30097;-72
2022/07/08 03:36:52;;;;;;;11.30;10.23;;;;;;;16.81;72.85;100723.03;2069973;84;27732;-72
2022/07/08 03:39:54;;;;;;;11.45;10.25;;;;;;;16.82;72.93;100726.12;2069895;86;28621;-72
2022/07/08 03:42:56;;;;;;;10.93;9.78;;;;;;;16.83;72.99;100736.44;2070777;85;32291;-71
2022/07/08 03:45:58;;;;;;;11.50;10.45;;;;;;;16.83;73.06;100748.62;2071357;84;33336;-71
2022/07/08 03:49:00;;;;;;;11.85;10.48;;;;;;;16.85;73.19;100748.91;2071750;85;30353;-73
2022/07/08 03:52:03;;;;;;;14.70;10.50;;;;;;;16.87;73.33;100751.50;2071302;85;28138;-73
2022/07/08 03:55:06;;;;;;;10.65;9.55;;;;;;;16.89;73.30;100757.68;2070248;85;28652;-71
2022/07/08 03:58:08;;;;;;;11.05;9.95;;;;;;;16.92;73.42;100761.53;2070050;86;31018;-72
2022/07/08 04:01:10;;;;;;;10.30;9.40;;;;;;;16.96;73.62;100759.50;2069920;85;33015;-71
2022/07/08 04:04:12;;;;;;;11.03;9.93;;;;;;;17.03;73.65;100773.47;2071719;85;29780;-72
2022/07/08 04:07:16;;;;;;;10.60;9.70;;;;;;;17.07;73.68;100770.44;2072410;85;27652;-72
2022/07/08 04:10:17;;;;;;;9.58;8.75;;;;;;;17.12;73.76;100772.35;2072000;85;29514;-72
2022/07/08 04:13:19;;;;;;;7.97;7.28;;;;;;;17.13;73.59;100775.91;2070485;85;31938;-72
2022/07/08 04:16:21;;;;;;;7.42;6.58;;;;;;;17.11;73.50;100780.09;2070020;84;34320;-70
2022/07/08 04:19:22;;;;;;;8.55;6.70;;;;;;;17.08;73.35;100786.22;2070085;86;30506;-72
2022/07/08 04:22:24;;;;;;;7.33;6.00;;;;;;;17.03;73.28;100783.83;2071380;85;28217;-72
2022/07/08 04:25:26;;;;;;;7.15;6.55;;;;;;;17.01;73.37;100789.34;2072096;85;29601;-73
2022/07/08 04:28:28;;;;;;;7.15;5.00;;;;;;;17.00;73.26;100794.37;2071881;84;31069;-72
2022/07/08 04:31:31;;;;;;;8.03;6.03;;;;;;;16.99;73.32;100796.69;2071349;84;34277;-72
2022/07/08 04:34:33;;;;;;;7.75;6.00;;;;;;;17.01;73.46;100798.81;2070378;85;29329;-72
2022/07/08 04:37:35;;;;;;;6.72;5.40;;;;;;;17.06;73.48;100801.69;2070142;85;27710;-72
2022/07/08 04:40:37;;;;;;;5.55;5.08;;;;;;;17.06;73.37;100802.55;2070514;86;28696;-71
2022/07/08 04:43:38;;;;;;;7.40;5.40;;;;;;;17.09;73.29;100803.69;2071598;85;31915;-72
2022/07/08 04:46:40;;;;;;;7.15;5.10;;;;;;;17.10;73.21;100808.13;2071894;84;32941;-72
2022/07/08 04:49:42;;;;;;;5.87;5.10;;;;;;;17.13;73.24;100815.16;2072251;85;29427;-72
2022/07/08 04:52:44;;;;;;;6.70;5.78;;;;;;;17.16;73.11;100810.90;2071109;84;27669;-72
2022/07/08 04:55:45;;;;;;;9.80;4.80;;;;;;;17.20;73.10;100817.84;2070296;86;28694;-72
2022/07/08 04:58:47;;;;;;;4.75;4.25;;;;;;;17.26;73.13;100820.61;2070088;86;32207;-72
2022/07/08 05:01:48;;;;;;;5.25;4.75;;;;;;;17.29;72.91;100825.31;2070713;85;32971;-71
2022/07/08 05:04:51;;;;;;;6.78;4.55;;;;;;;17.34;72.88;100829.55;2072136;84;28992;-71
2022/07/08 05:07:53;;;;;;;6.47;5.12;;;;;;;17.38;72.66;100827.86;2072211;84;27708;-71
2022/07/08 05:10:56;;;;;;;7.22;5.30;;;;;;;17.44;72.58;100832.02;2072154;84;28648;-70
2022/07/08 05:13:58;;;;;;;7.45;4.40;;;;;;;17.48;72.31;100840.28;2071775;85;31602;-70
2022/07/08 05:17:00;;;;;;;7.53;4.50;;;;;;;17.53;72.35;100839.48;2071601;85;34187;-71
2022/07/08 05:20:02;;;;;;;5.37;4.72;;;;;;;17.58;72.10;100848.16;2072021;85;29350;-71
2022/07/08 05:23:03;;;;;;;10.72;5.08;;;;;;;17.62;71.89;100851.51;2071592;85;27711;-70
2022/07/08 05:26:05;;;;;;;6.40;5.10;;;;;;;17.64;71.73;100860.41;2072009;84;29866;-69
2022/07/08 05:29:07;;;;;;;10.08;5.55;;;;;;;17.67;71.65;100857.95;2071672;85;32332;-69
2022/07/08 05:32:09;;;;;;;10.18;5.50;;;;;;;17.68;71.61;100863.75;2071767;85;33945;-70
2022/07/08 05:35:10;;;;;;;8.30;5.20;;;;;;;17.72;71.58;100864.77;2038044;87;29474;-71
2022/07/08 05:38:13;;;;;;;8.85;5.42;;;;;;;17.80;71.49;100862.88;2038224;87;27660;-70
2022/07/08 05:41:15;;;;;;;11.12;5.83;;;;;;;17.91;71.48;100868.89;2038027;87;29605;-70
2022/07/08 05:44:18;;;;;;;10.58;5.35;;;;;;;18.06;71.44;100864.25;2063309;85;31735;-70
2022/07/08 05:47:20;;;;;;;10.63;5.90;;;;;;;18.17;71.23;100877.03;2070060;84;33042;-70
2022/07/08 05:50:23;;;;;;;7.08;4.92;;;;;;;18.25;71.01;100873.26;2070411;84;29405;-70
2022/07/08 05:53:25;;;;;;;11.57;5.33;;;;;;;18.39;70.82;100872.26;2071135;85;28207;-70
2022/07/08 05:56:27;;;;;;;10.28;5.20;;;;;;;18.52;70.67;100872.23;2072014;85;28696;-71
2022/07/08 05:59:32;;;;;;;10.90;6.10;;;;;;;18.67;70.26;100889.20;2071872;85;31228;-71
2022/07/08 06:02:37;;;;;;;10.08;5.45;;;;;;;18.70;69.80;100884.91;2071780;85;33034;-70
2022/07/08 06:05:39;;;;;;;8.80;5.30;;;;;;;18.72;69.82;100884.30;2070377;85;29995;-70
2022/07/08 06:08:42;;;;;;;9.08;5.03;;;;;;;18.78;69.70;100891.11;2070404;86;27684;-71
2022/07/08 06:11:45;;;;;;;8.13;4.85;;;;;;;18.82;69.30;100897.55;2070085;86;29671;-71
2022/07/08 06:14:47;;;;;;;12.68;5.53;;;;;;;18.85;69.13;100901.91;2072045;85;31821;-71
2022/07/08 06:17:49;;;;;;;13.48;4.85;;;;;;;18.91;69.19;100900.06;2072114;84;33237;-71
2022/07/08 06:20:51;;;;;;;8.13;4.70;;;;;;;19.01;68.91;100898.06;2071943;85;29341;-71
2022/07/08 06:23:53;;;;;;;11.48;5.55;;;;;;;19.08;69.04;100904.74;2070743;84;27778;-71
2022/07/08 06:26:55;;;;;;;13.25;5.42;;;;;;;19.11;68.98;100904.52;2070417;85;29089;-71
2022/07/08 06:29:56;;;;;;;10.00;4.55;;;;;;;19.14;68.76;100905.64;2070047;85;31059;-71
2022/07/08 06:32:59;;;;;;;12.37;5.92;;;;;;;19.15;68.81;100914.64;2070495;85;33775;-71
2022/07/08 06:36:01;;;;;;;11.55;4.83;;;;;;;19.13;68.55;100911.55;2072240;84;30031;-71
2022/07/08 06:39:03;;;;;;;12.90;5.05;;;;;;;19.08;68.35;100911.05;2072074;85;27858;-70
2022/07/08 06:42:06;;;;;;;14.23;5.70;;;;;;;19.10;68.65;100915.00;2071790;85;29301;-70
2022/07/08 06:45:10;;;;;;;18.50;5.03;;;;;;;19.13;68.39;100912.05;2070125;84;31031;-71
2022/07/08 06:48:13;;;;;;;16.37;5.60;;;;;;;19.24;68.58;100913.95;2100266;84;33094;-70
2022/07/08 06:51:15;;;;;;;16.35;6.30;;;;;;;19.32;68.21;100916.09;2100782;84;29594;-71
2022/07/08 06:54:35;;;;;;;19.70;6.62;;;;;;;19.35;67.88;100920.78;2101712;84;27710;-72
2022/07/08 06:57:37;;;;;;;16.93;7.85;;;;;;;19.50;67.83;100917.86;2102374;84;30024;-71
2022/07/08 07:00:39;;;;;;;19.98;6.87;;;;;;;19.62;67.64;100922.33;2102228;84;31894;-72
2022/07/08 07:03:41;;;;;;;20.88;7.10;;;;;;;19.76;67.29;100925.84;2101130;84;34180;-72
2022/07/08 07:06:43;;;;;;;36.38;8.85;;;;;;;19.84;66.88;100932.41;2100521;84;30267;-73
2022/07/08 07:09:45;;;;;;;19.02;7.05;;;;;;;19.89;66.62;100937.00;2100638;84;27878;-72
2022/07/08 07:12:46;;;;;;;13.88;5.70;;;;;;;20.02;66.88;100930.61;2100694;84;28708;-71
2022/07/08 07:15:49;;;;;;;15.53;6.47;;;;;;;20.18;66.68;100930.23;2102495;84;31016;-72
2022/07/08 07:18:52;;;;;;;26.30;6.72;;;;;;;20.37;66.35;100930.97;2102757;84;32997;-72
2022/07/08 07:21:54;;;;;;;13.70;5.42;;;;;;;20.52;66.18;100932.95;2102617;84;30078;-73
2022/07/08 07:24:56;;;;;;;21.93;7.20;;;;;;;20.60;65.73;100941.84;2101300;84;27716;-71
2022/07/08 07:27:57;;;;;;;22.58;5.50;;;;;;;20.60;65.41;100939.97;2102579;84;29546;-72
2022/07/08 07:31:00;;;;;;;14.80;5.78;;;;;;;20.48;65.16;100944.59;2102504;84;31014;-71
2022/07/08 07:34:03;;;;;;;16.17;5.08;;;;;;;20.37;65.01;100947.30;2101750;84;33111;-71
2022/07/08 07:37:07;;;;;;;17.05;5.33;;;;;;;20.29;64.92;100946.55;2101083;84;30332;-71
2022/07/08 07:40:09;;;;;;;16.30;5.20;;;;;;;20.30;64.65;100952.37;2101035;84;27691;-72
2022/07/08 07:43:11;;;;;;;20.60;5.22;;;;;;;20.48;65.14;100955.95;2101130;84;28703;-71
2022/07/08 07:46:13;;;;;;;20.97;5.08;;;;;;;20.85;64.86;100956.20;2095487;84;31019;-70
2022/07/08 07:49:15;;;;;;;20.68;5.83;;;;;;;21.49;65.27;100954.49;2072032;84;33842;-71
2022/07/08 07:52:17;;;;;;;23.35;5.22;;;;;;;22.00;64.11;100956.94;2072059;85;29587;-70
2022/07/08 07:55:21;;;;;;;17.07;5.15;;;;;;;22.06;62.80;100956.41;2070346;85;37137;-71
2022/07/08 07:58:25;;;;;;;17.73;5.30;;;;;;;21.95;62.31;100961.44;2069886;84;28281;-71
2022/07/08 08:01:26;;;;;;;16.17;4.78;;;;;;;21.89;61.63;100960.60;2070353;85;32318;-70
2022/07/08 08:04:28;;;;;;;15.40;5.53;;;;;;;21.84;61.79;100961.52;2071210;85;33433;-71
2022/07/08 08:07:32;;;;;;;13.55;4.85;;;;;;;21.79;61.64;100964.62;2071748;85;30248;-71
2022/07/08 08:10:34;;;;;;;18.02;5.20;;;;;;;21.76;61.76;100966.77;2071875;85;27752;-72
2022/07/08 08:13:37;;;;;;;22.52;5.15;;;;;;;21.99;61.55;100968.37;2071188;85;29091;-71
2022/07/08 08:16:38;;;;;;;20.08;4.50;;;;;;;22.71;61.91;100966.17;2069905;86;31869;-71
2022/07/08 08:19:40;;;;;;;12.23;4.55;;;;;;;23.41;61.10;100964.81;2070217;84;33711;-72
2022/07/08 08:22:42;;;;;;;10.53;4.03;;;;;;;23.79;60.25;100964.42;2070097;85;29383;-71
2022/07/08 08:25:44;;;;;;;14.87;4.42;;;;;;;24.18;59.26;100960.75;2070433;85;27716;-71
2022/07/08 08:28:45;;;;;;;14.00;3.60;;;;;;;24.56;58.40;100960.73;2070377;84;29882;-72
2022/07/08 08:31:46;;;;;;;10.55;3.50;;;;;;;25.02;58.15;100965.76;2070639;84;31954;-72
2022/07/08 08:34:47;;;;;;;11.25;3.60;;;;;;;25.50;57.47;100966.09;2071438;85;33103;-72
2022/07/08 08:37:49;;;;;;;14.75;4.15;;;;;;;25.92;56.46;100964.00;2072515;84;29706;-72
2022/07/08 08:40:58;;;;;;;12.43;3.75;;;;;;;26.22;55.24;100961.84;2072157;84;27692;-72
2022/07/08 08:43:59;;;;;;;13.28;4.03;;;;;;;26.26;53.92;100971.98;2071312;84;28656;-73
2022/07/08 08:47:03;;;;;;;9.05;3.20;;;;;;;26.06;53.37;100980.41;2083348;84;31575;-72
2022/07/08 08:53:37;;;;;;;10.72;3.70;;;;;;;26.12;53.26;100974.31;2104357;84;30161;-72
2022/07/08 08:56:37;;;;;;;8.60;3.55;;;;;;;26.30;52.58;100974.23;2082492;84;27713;-73
2022/07/08 08:59:39;;;;;;;42.05;6.78;;;;;;;26.67;52.58;100974.92;2105953;84;28648;-72
2022/07/08 09:02:40;;;;;;;20.25;4.62;;;;;;;26.94;51.51;100979.34;2106077;84;30994;-72
2022/07/08 09:05:41;;;;;;;10.45;3.17;;;;;;;27.23;50.87;100978.55;2080315;84;32946;-72
2022/07/08 09:08:43;;;;;;;9.55;3.40;;;;;;;27.47;50.76;100983.26;2104050;84;30192;-74
2022/07/08 09:11:44;;;;;;;7.10;3.00;;;;;;;27.69;49.73;100983.09;2104373;84;27644;-73
2022/07/08 09:14:51;;;;;;;8.38;2.95;;;;;;;27.80;48.87;100981.04;2105573;84;28629;-72
2022/07/08 09:17:52;;;;;;;9.60;3.17;;;;;;;27.88;48.72;100981.86;2105478;84;31374;-73
2022/07/08 09:20:56;;;;;;;6.12;2.85;;;;;;;27.78;47.83;100968.80;2106223;84;32940;-73
2022/07/08 09:23:58;;;;;;;7.50;3.02;;;;;;;27.71;47.36;100974.14;2105599;84;29323;-73
2022/07/08 09:27:09;;;;;;;6.92;2.27;;;;;;;27.63;47.71;100968.66;2058159;84;27708;-72
2022/07/08 09:30:15;;;;;;;3.77;2.47;;;;;;;27.75;47.49;100966.39;2104165;84;29563;-70
2022/07/08 09:33:16;;;;;;;6.90;2.70;;;;;;;27.92;46.99;100974.14;2081046;84;31208;-73
2022/07/08 09:36:17;;;;;;;4.33;2.67;;;;;;;28.06;46.58;100972.55;2106206;84;34048;-72
2022/07/08 09:39:28;;;;;;;9.70;2.47;;;;;;;28.02;45.97;100978.08;2105945;84;29303;-72
2022/07/08 09:42:39;;;;;;;5.97;2.42;;;;;;;27.69;45.74;100974.83;2106199;84;27738;-72
2022/07/08 09:45:41;;;;;;;6.40;2.50;;;;;;;27.58;45.89;100968.30;2104043;84;29381;-72
2022/07/08 09:48:46;;;;;;;6.00;2.10;;;;;;;27.49;45.18;100965.19;2075355;83;31156;-72
2022/07/08 09:51:46;;;;;;;;;;;;;;;27.42;45.19;100961.73;2072417;85;33111;-71
2022/07/08 09:55:03;;;;;;;5.55;2.30;;;;;;;27.33;44.99;100961.89;2019287;85;28367;-71
2022/07/08 09:58:05;;;;;;;10.18;2.45;;;;;;;27.15;44.94;100967.88;2071486;85;27716;-73
2022/07/08 10:01:07;;;;;;;7.53;2.47;;;;;;;27.00;45.08;100968.18;2071556;85;29920;-72
2022/07/08 10:04:09;;;;;;;7.80;2.30;;;;;;;26.84;45.37;100970.39;2071034;85;31395;-71
2022/07/08 10:07:10;;;;;;;6.28;2.65;;;;;;;26.77;45.40;100973.41;2069901;85;32967;-71
2022/07/08 10:10:12;;;;;;;5.30;2.52;;;;;;;26.78;45.41;100971.02;2069522;85;29574;-71
2022/07/08 10:13:15;;;;;;;5.42;2.55;;;;;;;26.84;45.28;100969.02;2069972;85;27740;-72
2022/07/08 10:16:17;;;;;;;7.08;2.65;;;;;;;26.60;45.16;100974.72;2071620;85;28649;-70
2022/07/08 10:19:29;;;;;;;7.42;2.50;;;;;;;26.37;45.00;100975.81;2071824;85;31078;-69
2022/07/08 10:22:33;;;;;;;7.27;2.83;;;;;;;26.16;45.32;100983.93;2071385;84;30009;-71
2022/07/08 10:25:36;;;;;;;8.25;2.60;;;;;;;26.22;45.23;100976.42;2070033;85;30492;-71
2022/07/08 10:28:40;;;;;;;5.12;2.30;;;;;;;26.29;45.56;100982.13;2070055;86;27731;-71
2022/07/08 10:31:52;;;;;;;;;;;;;;;26.40;45.25;100978.24;2072390;86;29522;-72
2022/07/08 10:35:13;;;;;;;5.15;1.92;;;;;;;26.29;44.86;100968.92;2069383;85;31252;-72
2022/07/08 10:38:21;;;;;;;8.65;1.92;;;;;;;26.13;44.37;100977.91;1994985;88;32997;-71
2022/07/08 10:41:26;;;;;;;4.12;2.10;;;;;;;25.88;44.75;100964.00;1991615;88;30083;-71
2022/07/08 10:44:49;;;;;;;7.47;2.20;;;;;;;25.78;44.87;100975.92;1993409;89;27756;-72
2022/07/08 10:48:08;;;;;;;3.65;2.00;;;;;;;25.71;45.21;100976.72;1994137;88;28661;-72
2022/07/08 10:51:24;;;;;;;7.10;2.25;;;;;;;25.67;45.45;100984.41;1999956;89;31076;-72
2022/07/08 10:54:27;;;;;;;8.55;2.55;;;;;;;25.51;45.12;100986.49;1998765;88;32977;-72
2022/07/08 10:57:28;;;;;;;6.70;2.33;;;;;;;25.22;45.34;100980.70;2004384;88;30043;-72
2022/07/08 11:00:35;;;;;;;5.17;2.35;;;;;;;24.97;45.24;100982.32;2002010;88;28444;-73
2022/07/08 11:03:42;;;;;;;6.95;1.98;;;;;;;24.65;45.53;100983.63;1998871;89;29514;-72
2022/07/08 11:06:44;;;;;;;7.87;2.00;;;;;;;24.53;45.83;100977.47;1999569;89;31777;-72
2022/07/08 11:09:50;;;;;;;7.33;2.15;;;;;;;24.46;46.03;100969.00;2000353;88;32957;-72
2022/07/08 11:12:52;;;;;;;10.05;2.50;;;;;;;24.46;46.24;100990.06;2055111;85;29338;-72
2022/07/08 11:15:53;;;;;;;6.00;2.30;;;;;;;24.45;46.47;100985.08;2079587;85;27587;-72
2022/07/08 11:18:55;;;;;;;12.85;2.72;;;;;;;24.56;46.63;100982.66;2054440;85;28656;-72
2022/07/08 11:22:02;;;;;;;8.65;2.25;;;;;;;24.75;46.90;100984.45;2081209;85;31034;-72
2022/07/08 11:25:05;;;;;;;4.00;1.85;;;;;;;24.91;46.68;100977.44;2081693;84;32958;-72
2022/07/08 11:28:20;;;;;;;5.97;1.97;;;;;;;25.30;46.97;100962.98;2082547;85;29333;-72
2022/07/08 11:31:28;;;;;;;;;;;;;;;25.30;46.97;100962.98;2080346;85;27747;-72
2022/07/08 11:34:30;;;;;;;7.70;2.45;;;;;;;25.50;46.52;100974.31;2079660;85;28917;-71
2022/07/08 11:37:35;;;;;;;5.58;2.10;;;;;;;25.66;45.88;100979.95;2079686;85;31024;-70
2022/07/08 11:40:42;;;;;;;3.85;1.67;;;;;;;25.69;45.21;100983.75;2080192;85;33001;-72
2022/07/08 11:43:46;;;;;;;3.00;1.45;;;;;;;25.70;44.85;100974.50;2065392;85;27839;-72
2022/07/08 11:46:54;;;;;;;5.20;1.20;;;;;;;25.78;44.32;100969.06;2043871;83;27620;-72
2022/07/08 11:49:56;;;;;;;3.70;1.37;;;;;;;25.78;43.59;100970.95;2071102;85;29646;-72
2022/07/08 11:53:00;;;;;;;1.70;1.15;;;;;;;25.74;42.99;100962.16;2070128;86;31118;-73
2022/07/08 11:56:01;;;;;;;3.80;1.02;;;;;;;25.61;42.46;100969.45;2070095;84;33000;-73
2022/07/08 11:59:03;;;;;;;5.75;1.52;;;;;;;25.48;42.32;100970.38;2070251;86;29324;-72
2022/07/08 12:02:05;;;;;;;3.60;1.35;;;;;;;25.32;42.20;100965.02;2071874;84;27680;-71
2022/07/08 12:05:10;;;;;;;1.87;1.02;;;;;;;25.15;42.14;100964.02;2072202;85;28648;-70
2022/07/08 12:08:12;;;;;;;2.85;1.22;;;;;;;25.00;41.89;100969.68;2072178;84;31027;-71
2022/07/08 12:11:18;;;;;;;1.00;0.60;;;;;;;24.79;41.12;100961.74;2070772;85;33885;-72
2022/07/08 12:14:21;;;;;;;2.83;0.90;;;;;;;24.65;41.63;100966.69;2069585;85;29411;-72
2022/07/08 12:17:28;;;;;;;1.77;1.02;;;;;;;24.57;41.54;100956.98;2070168;84;27736;-71
2022/07/08 12:20:38;;;;;;;2.40;0.90;;;;;;;24.58;41.63;100954.60;2070606;85;28678;-70
2022/07/08 12:23:44;;;;;;;2.92;1.17;;;;;;;24.59;40.30;100954.96;2071832;84;31863;-72
2022/07/08 12:26:59;;;;;;;2.70;0.85;;;;;;;24.50;40.97;100947.15;2071943;85;32952;-72
2022/07/08 12:30:06;;;;;;;3.58;1.55;;;;;;;24.47;40.63;100943.86;2069269;85;30131;-72
2022/07/08 12:33:07;;;;;;;2.80;1.05;;;;;;;24.41;40.79;100937.96;2070313;85;28236;-69
2022/07/08 12:36:28;;;;;;;1.67;1.00;;;;;;;24.51;41.27;100941.14;2070192;84;28657;-70
2022/07/08 12:39:30;;;;;;;3.52;1.00;;;;;;;24.71;41.24;100936.48;2069778;85;31969;-71
2022/07/08 12:42:31;;;;;;;3.42;1.40;;;;;;;24.87;41.14;100936.66;2071859;85;34095;-71
2022/07/08 12:45:33;;;;;;;7.95;2.67;;;;;;;24.96;40.92;100937.61;2072194;84;29185;-71
2022/07/08 12:48:35;;;;;;;2.37;1.32;;;;;;;25.07;40.65;100932.91;2086730;84;27577;-72
2022/07/08 12:51:36;;;;;;;2.52;1.20;;;;;;;25.20;41.08;100931.16;2101090;84;28816;-71
2022/07/08 12:54:40;;;;;;;5.00;1.30;;;;;;;25.41;40.90;100929.45;2100690;83;31017;-72
2022/07/08 12:57:42;;;;;;;1.33;1.03;;;;;;;25.51;40.66;100923.91;2100992;84;32972;-71
2022/07/08 13:00:43;;;;;;;1.02;0.80;;;;;;;25.64;40.98;100920.24;2075886;84;30138;-72
2022/07/08 13:03:44;;;;;;;2.62;1.15;;;;;;;25.81;40.78;100923.10;2102408;84;27791;-72
2022/07/08 13:06:49;;;;;;;4.33;1.30;;;;;;;25.95;40.49;100917.02;2102819;84;28654;-71
2022/07/08 13:09:51;;;;;;;2.17;0.95;;;;;;;26.02;40.22;100923.59;2102207;84;32703;-70
2022/07/08 13:12:52;;;;;;;4.85;1.35;;;;;;;26.06;38.89;100923.59;2100670;84;32949;-72
2022/07/08 13:15:53;;;;;;;2.60;1.30;;;;;;;26.01;39.85;100915.50;2100768;84;30082;-72
2022/07/08 13:18:54;;;;;;;3.85;2.12;;;;;;;26.02;39.12;100914.48;2100857;84;27545;-72
2022/07/08 13:21:56;;;;;;;2.62;1.27;;;;;;;25.98;38.96;100904.87;2102035;84;28651;-72
2022/07/08 13:24:58;;;;;;;2.30;1.20;;;;;;;26.00;39.28;100918.77;2100478;84;31034;-73
2022/07/08 13:27:59;;;;;;;2.17;1.22;;;;;;;26.03;38.98;100908.84;2100650;84;33724;-72
2022/07/08 13:31:00;;;;;;;4.12;1.57;;;;;;;26.02;39.06;100911.23;2074729;84;29563;-72
2022/07/08 13:34:02;;;;;;;3.12;1.30;;;;;;;26.04;39.31;100921.55;2100797;84;27647;-72
2022/07/08 13:37:04;;;;;;;2.55;0.90;;;;;;;26.04;38.99;100916.55;2100778;84;28650;-71
2022/07/08 13:40:07;;;;;;;6.40;1.30;;;;;;;25.94;38.76;100927.64;2100870;84;31199;-72
2022/07/08 13:43:08;;;;;;;3.72;1.30;;;;;;;25.78;38.91;100926.52;2101427;84;32961;-71
2022/07/08 13:46:11;;;;;;;3.35;1.77;;;;;;;25.65;38.95;100926.61;2102610;84;29476;-71
2022/07/08 13:49:13;;;;;;;6.10;1.92;;;;;;;25.59;39.39;100930.83;2084918;84;27722;-70
2022/07/08 13:52:15;;;;;;;5.33;1.60;;;;;;;25.67;39.83;100920.42;2071848;85;28703;-71
2022/07/08 13:55:16;;;;;;;3.55;1.30;;;;;;;25.67;39.85;100928.66;2070353;84;31440;-70
2022/07/08 13:58:17;;;;;;;5.25;1.40;;;;;;;25.71;39.87;100917.72;2070191;85;33355;-71
2022/07/08 14:01:20;;;;;;;4.55;1.70;;;;;;;25.75;39.85;100917.75;2070467;84;29337;-69
2022/07/08 14:04:21;;;;;;;2.87;1.27;;;;;;;25.80;39.82;100911.28;2072064;85;27656;-72
2022/07/08 14:07:23;;;;;;;8.45;2.00;;;;;;;25.82;39.42;100917.44;2072206;85;29096;-72
2022/07/08 14:10:24;;;;;;;5.78;1.67;;;;;;;25.71;39.47;100920.46;2053560;85;31236;-73
2022/07/08 14:13:26;;;;;;;4.42;1.30;;;;;;;25.60;39.67;100915.59;2071765;84;32979;-72